Pagina principale
METAR-TAF:

METAR-TAF

Aeroporti :

Batajnica, Serbia

latitudine: 44-56-07N, longitudine: 020-15-27E, altezza: 86 m

Osservazione

Il bollettino è stato emesso 20 minuti fa, alle 11:30 UTC
Vento 9 kt da est, variando fra est/nord-est e sud-est
Temperature 2°C
Umidità 47%
Pressione 1040 hPa
Visibilità 10 km o più
nessuna nube inferiore a 1500 m e nessun cumulonembo

METAR: LYBT 091130Z 10009KT 060V140 CAVOK 02/M08 Q1040 NOSIG

Ora: 12:50 (11:50 UTC)

Previsione

Il bollettino è stato emesso 50 minuti fa, alle 11:00 UTC
Previsione valida dal 09 alle 12 UTC al 10 alle 12 UTC
Vento 12 kt da est/sud-est
Visibilità 10 km o più
nessuna nube inferiore a 1500 m e nessun cumulonembo
Evoluzione graduale
dal 09 alle 14 UTC al 09 alle 17 UTC
Vento 6 kt da nord-est

TAF: LYBT 091100Z 0912/1012 11012KT CAVOK TX04/0913Z TNM06/1006Z BECMG 0914/0917 05006KT

Osservazioni e previsioni meteorologiche di più di 4000 aeroporti (messaggi METAR e TAF).

Le stazioni disponibili sono rappresentate dai dischi gialli e rossi sulla carta.

Puntare il mouse per vedere il nome della stazione.

Clicca sopra per visualizzare le osservazioni e previsioni meteorologiche.

Per cambiare la mappa : fare clic sui pulsanti verdi con una croce nera per ingrandire, il pulsante verde con un trattino per diminuire, o sulla freccia verde per le mappe adiacenti.


METAR-TAF: